Terminal Aerodrome Forecast
Issued by NWS Riverton, WY

Current Version | Previous Version | Text Only | Print | Product List | Glossary On
Versions: 1 2 3 4 5 6 7 8 9 10 11 12 13 14 15 16 17
000
FTUS45 KRIW 020525
TAFRIW
TAF
KRIW 020525Z 0206/0306 24008KT P6SM SCT110
     FM021400 VRB05KT P6SM SCT110
     FM022030 24014G24KT P6SM SCT110
     FM030100 25011KT P6SM SCT110=

USA.gov is the U.S. government's official web portal to all federal, state and local government web resources and services.